createdAt,value
2022-08-03T00:00:04.130Z,0.00
2022-08-03T00:01:04.148Z,0.00
2022-08-03T00:02:04.118Z,0.00
2022-08-03T00:03:04.142Z,0.00
2022-08-03T00:04:04.104Z,0.00
2022-08-03T00:05:04.097Z,0.00
2022-08-03T00:06:05.226Z,0.00
2022-08-03T00:07:04.066Z,0.00
2022-08-03T00:08:04.061Z,0.00
2022-08-03T00:09:04.048Z,0.00
2022-08-03T00:10:04.045Z,0.00
2022-08-03T00:11:04.049Z,0.00
2022-08-03T00:12:04.030Z,0.00
2022-08-03T00:13:04.023Z,0.00
2022-08-03T00:14:03.999Z,0.00
2022-08-03T00:15:03.990Z,0.00
2022-08-03T00:16:03.981Z,0.00
2022-08-03T00:17:03.995Z,0.00
2022-08-03T00:18:03.974Z,0.00
2022-08-03T00:19:03.976Z,0.00
2022-08-03T00:20:03.950Z,0.00
2022-08-03T00:21:03.947Z,0.00
2022-08-03T00:22:03.946Z,0.00
2022-08-03T00:23:03.957Z,0.00
2022-08-03T00:24:03.927Z,0.00
2022-08-03T00:25:03.918Z,0.00
2022-08-03T00:26:03.895Z,0.00
2022-08-03T00:27:03.896Z,0.00
2022-08-03T00:28:03.876Z,0.00
2022-08-03T00:29:04.170Z,0.00
2022-08-03T00:30:03.882Z,0.00
2022-08-03T00:31:03.857Z,0.00
2022-08-03T00:32:03.846Z,0.00
2022-08-03T00:33:03.889Z,0.00
2022-08-03T00:34:04.280Z,0.00
2022-08-03T00:35:08.124Z,0.00
2022-08-03T00:36:03.824Z,0.00
2022-08-03T00:37:03.812Z,0.00
2022-08-03T00:38:03.804Z,0.00
2022-08-03T00:39:03.790Z,0.00
2022-08-03T00:40:03.793Z,0.00
2022-08-03T00:41:03.791Z,0.00
2022-08-03T00:42:03.762Z,0.00
2022-08-03T00:43:03.766Z,0.00
2022-08-03T00:44:03.745Z,0.00
2022-08-03T00:45:03.735Z,0.00
2022-08-03T00:46:03.725Z,0.00
2022-08-03T00:47:03.744Z,0.00
2022-08-03T00:48:03.718Z,0.00
2022-08-03T00:49:03.870Z,0.00
2022-08-03T00:50:03.700Z,0.00
2022-08-03T00:51:03.701Z,0.00
2022-08-03T00:52:09.542Z,0.00
2022-08-03T00:53:03.697Z,0.00
2022-08-03T00:54:03.671Z,0.00
2022-08-03T00:55:03.648Z,0.00
2022-08-03T00:56:03.654Z,0.00
2022-08-03T00:57:03.656Z,0.00
2022-08-03T00:58:03.633Z,0.00
2022-08-03T00:59:03.654Z,0.00
2022-08-03T01:00:03.610Z,0.00
2022-08-03T01:01:03.669Z,0.00
2022-08-03T01:02:03.605Z,0.00
2022-08-03T01:03:03.597Z,0.00
2022-08-03T01:04:03.573Z,0.00
2022-08-03T01:05:03.595Z,0.00
2022-08-03T01:06:03.566Z,0.00
2022-08-03T01:07:03.552Z,0.00
2022-08-03T01:08:03.537Z,0.00
2022-08-03T01:09:03.546Z,0.00
2022-08-03T01:10:03.529Z,0.00
2022-08-03T01:11:03.566Z,0.00
2022-08-03T01:12:03.505Z,0.00
2022-08-03T01:13:03.499Z,0.00
2022-08-03T01:14:18.227Z,0.00
2022-08-03T01:15:03.483Z,0.00
2022-08-03T01:16:03.487Z,0.00
2022-08-03T01:17:03.483Z,0.00
2022-08-03T01:18:03.463Z,0.00
2022-08-03T01:19:03.450Z,0.00
2022-08-03T01:20:03.433Z,0.00
2022-08-03T01:21:03.442Z,0.00
2022-08-03T01:22:03.417Z,0.00
2022-08-03T01:23:03.431Z,0.00
2022-08-03T01:24:03.414Z,0.00
2022-08-03T01:25:03.400Z,0.00
2022-08-03T01:26:03.394Z,0.00
2022-08-03T01:27:03.518Z,0.00
2022-08-03T01:28:03.362Z,0.00
2022-08-03T01:29:03.397Z,0.00
2022-08-03T01:30:03.352Z,0.00
2022-08-03T01:31:03.361Z,0.00
2022-08-03T01:32:59.599Z,0.00
2022-08-03T01:33:03.607Z,0.00
2022-08-03T01:34:03.327Z,0.00
2022-08-03T01:35:03.342Z,0.00
2022-08-03T01:36:03.311Z,0.00
2022-08-03T01:37:03.295Z,0.00
2022-08-03T01:38:03.289Z,0.00
2022-08-03T01:39:03.276Z,0.00
2022-08-03T01:40:03.270Z,0.00
2022-08-03T01:41:03.268Z,0.00
2022-08-03T01:42:03.278Z,0.00
2022-08-03T01:43:03.262Z,0.00
2022-08-03T01:44:29.965Z,0.00
2022-08-03T01:45:03.228Z,0.00
2022-08-03T01:46:03.210Z,0.00
2022-08-03T01:47:03.225Z,0.00
2022-08-03T01:48:03.204Z,0.00
2022-08-03T01:49:09.127Z,0.00
2022-08-03T01:50:03.184Z,0.00
2022-08-03T01:51:03.185Z,0.00
2022-08-03T01:52:05.369Z,0.00
2022-08-03T01:53:03.186Z,0.00
2022-08-03T01:54:03.156Z,0.00
2022-08-03T01:55:03.133Z,0.00
2022-08-03T01:56:03.137Z,0.00
2022-08-03T01:57:03.125Z,0.00
2022-08-03T01:58:05.720Z,0.00
2022-08-03T01:59:03.105Z,0.00
2022-08-03T02:00:03.087Z,0.00
2022-08-03T02:01:03.150Z,0.00
2022-08-03T02:02:15.649Z,0.00
2022-08-03T02:03:03.082Z,0.00
2022-08-03T02:04:03.089Z,0.00
2022-08-03T02:05:03.085Z,0.00
2022-08-03T02:06:55.591Z,0.00
2022-08-03T02:07:03.547Z,0.00
2022-08-03T02:08:03.019Z,0.00
2022-08-03T02:09:03.034Z,0.00
2022-08-03T02:10:03.013Z,0.00
2022-08-03T02:11:03.030Z,0.00
2022-08-03T02:12:02.994Z,0.00
2022-08-03T02:13:02.981Z,0.00
2022-08-03T02:14:02.973Z,0.00
2022-08-03T02:15:02.961Z,0.00
2022-08-03T02:16:02.965Z,0.00
2022-08-03T02:17:02.978Z,0.00
2022-08-03T02:18:02.932Z,0.00
2022-08-03T02:19:02.932Z,0.00
2022-08-03T02:20:02.928Z,0.00
2022-08-03T02:21:05.411Z,0.00
2022-08-03T02:22:02.916Z,0.00
2022-08-03T02:23:02.927Z,0.00
2022-08-03T02:24:02.883Z,0.00
2022-08-03T02:25:02.892Z,0.00
2022-08-03T02:26:02.865Z,0.00
2022-08-03T02:27:02.871Z,0.00
2022-08-03T02:28:02.860Z,0.00
2022-08-03T02:29:02.861Z,0.00
2022-08-03T02:30:02.902Z,0.00
2022-08-03T02:31:02.840Z,0.00
2022-08-03T02:32:02.809Z,0.00
2022-08-03T02:33:02.808Z,0.00
2022-08-03T02:34:02.798Z,0.00
2022-08-03T02:35:02.833Z,0.00
2022-08-03T02:36:02.799Z,0.00
2022-08-03T02:37:02.779Z,0.00
2022-08-03T02:38:02.776Z,0.00
2022-08-03T02:39:02.769Z,0.00
2022-08-03T02:40:02.741Z,0.00
2022-08-03T02:41:02.752Z,0.00
2022-08-03T02:42:03.273Z,0.00
2022-08-03T02:43:02.723Z,0.00
2022-08-03T02:44:06.938Z,0.00
2022-08-03T02:45:02.717Z,0.00
2022-08-03T02:46:02.706Z,0.00
2022-08-03T02:47:02.717Z,0.00
2022-08-03T02:48:02.691Z,0.00
2022-08-03T02:49:41.137Z,0.00
2022-08-03T02:50:02.725Z,0.00
2022-08-03T02:51:02.669Z,0.00
2022-08-03T02:52:02.643Z,0.00
2022-08-03T02:53:02.657Z,0.00
2022-08-03T02:54:02.631Z,0.00
2022-08-03T02:55:02.631Z,0.00
2022-08-03T02:56:02.608Z,0.00
2022-08-03T02:57:02.612Z,0.00
2022-08-03T02:58:02.603Z,0.00
2022-08-03T02:59:02.603Z,0.00
2022-08-03T03:00:02.584Z,0.00
2022-08-03T03:01:02.606Z,0.00
2022-08-03T03:02:02.560Z,0.00
2022-08-03T03:03:02.556Z,0.00
2022-08-03T03:04:02.555Z,0.00
2022-08-03T03:05:56.042Z,0.00
2022-08-03T03:06:05.609Z,0.00
2022-08-03T03:07:03.724Z,0.00
2022-08-03T03:08:02.504Z,0.00
2022-08-03T03:09:02.503Z,0.00
2022-08-03T03:10:02.508Z,0.00
2022-08-03T03:11:02.494Z,0.00
2022-08-03T03:12:02.476Z,0.00
2022-08-03T03:13:02.465Z,0.00
2022-08-03T03:14:02.456Z,0.00
2022-08-03T03:15:02.449Z,0.00
2022-08-03T03:16:02.436Z,0.00
2022-08-03T03:17:02.467Z,0.00
2022-08-03T03:18:02.439Z,0.00
2022-08-03T03:19:02.408Z,0.00
2022-08-03T03:20:02.399Z,0.00
2022-08-03T03:21:02.403Z,0.00
2022-08-03T03:22:02.390Z,0.00
2022-08-03T03:23:02.389Z,0.00
2022-08-03T03:24:02.371Z,0.00
2022-08-03T03:25:02.365Z,0.00
2022-08-03T03:26:02.392Z,0.00
2022-08-03T03:27:02.339Z,0.00
2022-08-03T03:28:02.335Z,0.00
2022-08-03T03:29:02.355Z,0.00
2022-08-03T03:30:02.321Z,0.00
2022-08-03T03:31:02.305Z,0.00
2022-08-03T03:32:02.578Z,0.00
2022-08-03T03:33:02.300Z,0.00
2022-08-03T03:34:02.286Z,0.00
2022-08-03T03:35:02.305Z,0.00
2022-08-03T03:36:02.264Z,0.00
2022-08-03T03:37:02.255Z,0.00
2022-08-03T03:38:02.261Z,0.00
2022-08-03T03:39:15.676Z,4.00
2022-08-03T03:40:02.250Z,0.00
2022-08-03T03:41:02.250Z,4.00
2022-08-03T03:42:02.218Z,0.00
2022-08-03T03:43:02.197Z,4.00
2022-08-03T03:44:02.211Z,0.00
2022-08-03T03:45:02.187Z,4.00
2022-08-03T03:46:02.178Z,4.00
2022-08-03T03:47:02.193Z,4.00
2022-08-03T03:48:02.170Z,4.00
2022-08-03T03:49:02.187Z,8.00
2022-08-03T03:50:02.150Z,8.00
2022-08-03T03:51:02.153Z,8.00
2022-08-03T03:52:02.143Z,8.00
2022-08-03T03:53:02.146Z,12.00
2022-08-03T03:54:02.113Z,12.00
2022-08-03T03:55:02.118Z,16.00
2022-08-03T03:56:03.083Z,16.00
2022-08-03T03:57:02.096Z,20.00
2022-08-03T03:58:02.087Z,20.00
2022-08-03T03:59:02.353Z,24.00
2022-08-03T04:00:02.076Z,24.00
2022-08-03T04:01:02.162Z,28.00
2022-08-03T04:02:02.059Z,32.00
2022-08-03T04:03:02.039Z,32.00
2022-08-03T04:04:02.040Z,36.00
2022-08-03T04:05:02.036Z,36.00
2022-08-03T04:06:02.022Z,40.00
2022-08-03T04:07:02.012Z,44.00
2022-08-03T04:08:02.001Z,48.00
2022-08-03T04:09:01.980Z,52.00
2022-08-03T04:10:14.058Z,56.00
2022-08-03T04:11:01.992Z,60.00
2022-08-03T04:12:01.973Z,64.00
2022-08-03T04:13:01.961Z,68.00
2022-08-03T04:14:02.286Z,76.00
2022-08-03T04:15:01.930Z,76.00
2022-08-03T04:16:01.934Z,84.00
2022-08-03T04:17:01.946Z,88.00
2022-08-03T04:18:01.915Z,92.00
2022-08-03T04:19:01.923Z,96.00
2022-08-03T04:20:01.897Z,100.00
2022-08-03T04:21:01.873Z,108.00
2022-08-03T04:22:01.885Z,112.00
2022-08-03T04:23:01.894Z,116.00
2022-08-03T04:24:01.944Z,124.00
2022-08-03T04:25:01.844Z,128.00
2022-08-03T04:26:01.856Z,136.00
2022-08-03T04:27:01.841Z,140.00
2022-08-03T04:28:28.343Z,148.00
2022-08-03T04:29:01.828Z,152.00
2022-08-03T04:30:01.820Z,160.00
2022-08-03T04:31:01.808Z,164.00
2022-08-03T04:32:02.073Z,172.00
2022-08-03T04:33:01.789Z,176.00
2022-08-03T04:34:01.782Z,184.00
2022-08-03T04:35:01.779Z,188.00
2022-08-03T04:36:03.635Z,196.00
2022-08-03T04:37:01.754Z,200.00
2022-08-03T04:38:01.753Z,208.00
2022-08-03T04:39:01.722Z,212.00
2022-08-03T04:40:01.721Z,220.00
2022-08-03T04:41:01.733Z,224.00
2022-08-03T04:42:07.644Z,228.00
2022-08-03T04:43:01.695Z,236.00
2022-08-03T04:44:01.700Z,240.00
2022-08-03T04:45:02.028Z,244.00
2022-08-03T04:46:01.693Z,248.00
2022-08-03T04:47:01.664Z,264.00
2022-08-03T04:48:02.936Z,308.00
2022-08-03T04:49:01.662Z,388.00
2022-08-03T04:50:01.637Z,456.00
2022-08-03T04:51:01.623Z,516.00
2022-08-03T04:52:01.616Z,552.00
2022-08-03T04:53:01.637Z,576.00
2022-08-03T04:54:01.597Z,596.00
2022-08-03T04:55:01.590Z,608.00
2022-08-03T04:56:01.603Z,616.00
2022-08-03T04:57:01.586Z,624.00
2022-08-03T04:58:01.572Z,636.00
2022-08-03T04:59:01.559Z,660.00
2022-08-03T05:00:03.348Z,684.00
2022-08-03T05:01:01.544Z,700.00
2022-08-03T05:02:01.637Z,724.00
2022-08-03T05:03:01.520Z,740.00
2022-08-03T05:04:01.528Z,756.00
2022-08-03T05:05:01.530Z,772.00
2022-08-03T05:06:10.979Z,776.00
2022-08-03T05:07:11.587Z,800.00
2022-08-03T05:08:01.483Z,836.00
2022-08-03T05:09:01.478Z,860.00
2022-08-03T05:10:03.288Z,884.00
2022-08-03T05:11:01.475Z,908.00
2022-08-03T05:12:01.460Z,936.00
2022-08-03T05:13:01.436Z,944.00
2022-08-03T05:14:01.439Z,952.00
2022-08-03T05:15:01.431Z,976.00
2022-08-03T05:16:01.420Z,1008.00
2022-08-03T05:17:01.418Z,1052.00
2022-08-03T05:18:01.395Z,1068.00
2022-08-03T05:19:01.379Z,1092.00
2022-08-03T05:20:01.378Z,1116.00
2022-08-03T05:21:01.359Z,1128.00
2022-08-03T05:22:01.373Z,1160.00
2022-08-03T05:23:01.373Z,1212.00
2022-08-03T05:24:01.344Z,1240.00
2022-08-03T05:25:01.332Z,1248.00
2022-08-03T05:26:01.325Z,1268.00
2022-08-03T05:27:01.326Z,1304.00
2022-08-03T05:28:01.332Z,1360.00
2022-08-03T05:29:01.328Z,1428.00
2022-08-03T05:30:30.907Z,1452.00
2022-08-03T05:31:01.274Z,1472.00
2022-08-03T05:32:06.226Z,1492.00
2022-08-03T05:33:01.275Z,1540.00
2022-08-03T05:34:01.268Z,1564.00
2022-08-03T05:35:01.244Z,1556.00
2022-08-03T05:36:04.310Z,1540.00
2022-08-03T05:37:01.226Z,1480.00
2022-08-03T05:38:01.216Z,1316.00
2022-08-03T05:39:02.942Z,1184.00
2022-08-03T05:40:01.207Z,1132.00
2022-08-03T05:41:20.939Z,1064.00
2022-08-03T05:42:01.188Z,1096.00
2022-08-03T05:43:01.188Z,1228.00
2022-08-03T05:44:01.182Z,1396.00
2022-08-03T05:45:01.172Z,1532.00
2022-08-03T05:46:11.750Z,1564.00
2022-08-03T05:47:01.160Z,1572.00
2022-08-03T05:48:01.144Z,1592.00
2022-08-03T05:49:01.173Z,1616.00
2022-08-03T05:50:01.121Z,1640.00
2022-08-03T05:51:01.111Z,1656.00
2022-08-03T05:52:13.364Z,1676.00
2022-08-03T05:53:01.123Z,1696.00
2022-08-03T05:54:01.098Z,1724.00
2022-08-03T05:55:01.094Z,1744.00
2022-08-03T05:56:13.206Z,1764.00
2022-08-03T05:57:01.070Z,1792.00
2022-08-03T05:58:01.055Z,1812.00
2022-08-03T05:59:16.290Z,1836.00
2022-08-03T06:00:01.058Z,1860.00
2022-08-03T06:01:01.027Z,1888.00
2022-08-03T06:02:01.139Z,1896.00
2022-08-03T06:03:01.022Z,1916.00
2022-08-03T06:04:01.019Z,1940.00
2022-08-03T06:05:01.008Z,1960.00
2022-08-03T06:06:00.991Z,1980.00
2022-08-03T06:07:00.978Z,2008.00
2022-08-03T06:08:00.984Z,2028.00
2022-08-03T06:09:00.963Z,2044.00
2022-08-03T06:10:36.657Z,2068.00
2022-08-03T06:11:00.976Z,2084.00
2022-08-03T06:12:00.941Z,2108.00
2022-08-03T06:13:00.936Z,2132.00
2022-08-03T06:14:00.939Z,2156.00
2022-08-03T06:15:00.923Z,2212.00
2022-08-03T06:16:00.916Z,2260.00
2022-08-03T06:17:00.928Z,2308.00
2022-08-03T06:18:02.190Z,2340.00
2022-08-03T06:19:00.897Z,2380.00
2022-08-03T06:20:00.876Z,2412.00
2022-08-03T06:21:09.699Z,2448.00
2022-08-03T06:22:00.871Z,2488.00
2022-08-03T06:23:01.482Z,2512.00
2022-08-03T06:24:00.844Z,2532.00
2022-08-03T06:25:04.932Z,2544.00
2022-08-03T06:26:00.841Z,2568.00
2022-08-03T06:27:00.822Z,2584.00
2022-08-03T06:28:00.824Z,2592.00
2022-08-03T06:29:00.912Z,2636.00
2022-08-03T06:30:00.797Z,2652.00
2022-08-03T06:31:00.781Z,2668.00
2022-08-03T06:32:00.781Z,2692.00
2022-08-03T06:33:00.768Z,2712.00
2022-08-03T06:34:32.275Z,2768.00
2022-08-03T06:35:00.782Z,2808.00
2022-08-03T06:36:00.742Z,2848.00
2022-08-03T06:37:02.308Z,2864.00
2022-08-03T06:38:00.747Z,2892.00
2022-08-03T06:39:00.735Z,2928.00
2022-08-03T06:40:00.727Z,2968.00
2022-08-03T06:41:00.723Z,2988.00
2022-08-03T06:42:00.695Z,3024.00
2022-08-03T06:43:00.685Z,3052.00
2022-08-03T06:44:03.734Z,3088.00
2022-08-03T06:45:00.681Z,3120.00
2022-08-03T06:46:00.681Z,3152.00
2022-08-03T06:47:00.689Z,3192.00
2022-08-03T06:48:00.654Z,3200.00
2022-08-03T06:49:00.702Z,3216.00
2022-08-03T06:50:12.932Z,3216.00
2022-08-03T06:51:00.619Z,3204.00
2022-08-03T06:52:03.347Z,3196.00
2022-08-03T06:53:00.621Z,3208.00
2022-08-03T06:54:00.602Z,3224.00
2022-08-03T06:55:00.598Z,3256.00
2022-08-03T06:56:00.590Z,3276.00
2022-08-03T06:57:00.572Z,3288.00
2022-08-03T06:58:03.616Z,3316.00
2022-08-03T06:59:00.598Z,3336.00
2022-08-03T07:00:08.643Z,3356.00
2022-08-03T07:01:00.602Z,3380.00
2022-08-03T07:02:00.534Z,3412.00
2022-08-03T07:03:00.524Z,3452.00
2022-08-03T07:04:00.550Z,3476.00
2022-08-03T07:05:00.539Z,3508.00
2022-08-03T07:06:00.521Z,3540.00
2022-08-03T07:07:00.496Z,3568.00
2022-08-03T07:08:00.488Z,3596.00
2022-08-03T07:09:00.477Z,3628.00
2022-08-03T07:10:00.479Z,3668.00
2022-08-03T07:11:00.479Z,3748.00
2022-08-03T07:12:00.478Z,3776.00
2022-08-03T07:13:00.461Z,3804.00
2022-08-03T07:14:00.453Z,3956.00
2022-08-03T07:15:02.214Z,3964.00
2022-08-03T07:16:00.421Z,4120.00
2022-08-03T07:17:00.441Z,4184.00
2022-08-03T07:18:00.413Z,4248.00
2022-08-03T07:19:00.416Z,4216.00
2022-08-03T07:20:00.407Z,4388.00
2022-08-03T07:21:00.405Z,4468.00
2022-08-03T07:22:02.392Z,4584.00
2022-08-03T07:23:00.397Z,4568.00
2022-08-03T07:24:00.378Z,4784.00
2022-08-03T07:25:00.374Z,4840.00
2022-08-03T07:26:00.359Z,4884.00
2022-08-03T07:27:00.337Z,4932.00
2022-08-03T07:28:00.339Z,4984.00
2022-08-03T07:29:00.337Z,5032.00
2022-08-03T07:30:00.323Z,5080.00
2022-08-03T07:31:00.311Z,5148.00
2022-08-03T07:32:00.318Z,5188.00
2022-08-03T07:33:00.310Z,5228.00
2022-08-03T07:34:00.282Z,5284.00
2022-08-03T07:35:01.382Z,5352.00
2022-08-03T07:36:00.269Z,5408.00
2022-08-03T07:37:00.274Z,5460.00
2022-08-03T07:38:00.251Z,5504.00
2022-08-03T07:39:00.241Z,5540.00
2022-08-03T07:40:00.235Z,5560.00
2022-08-03T07:41:00.253Z,5592.00
2022-08-03T07:42:00.237Z,5612.00
2022-08-03T07:43:00.231Z,5560.00
2022-08-03T07:44:00.217Z,5548.00
2022-08-03T07:45:00.221Z,5512.00
2022-08-03T07:46:00.184Z,5480.00
2022-08-03T07:47:00.198Z,5452.00
2022-08-03T07:48:00.167Z,5428.00
2022-08-03T07:49:00.261Z,5400.00
2022-08-03T07:50:00.185Z,5260.00
2022-08-03T07:51:00.163Z,5356.00
2022-08-03T07:52:00.151Z,5236.00
2022-08-03T07:53:00.150Z,5176.00
2022-08-03T07:54:00.135Z,5696.00
2022-08-03T07:55:00.113Z,5740.00
2022-08-03T07:56:00.112Z,5808.00
2022-08-03T07:57:00.090Z,5904.00
2022-08-03T07:58:00.095Z,5916.00
2022-08-03T07:59:00.091Z,6080.00
2022-08-03T08:00:02.468Z,6236.00
2022-08-03T08:01:00.123Z,6152.00
2022-08-03T08:02:00.052Z,6284.00
2022-08-03T08:03:00.045Z,7208.00
2022-08-03T08:04:00.034Z,8816.00
2022-08-03T08:05:04.972Z,6936.00
2022-08-03T08:06:00.023Z,6068.00
2022-08-03T08:07:00.028Z,5864.00
2022-08-03T08:08:00.064Z,5868.00
2022-08-03T08:09:00.013Z,5860.00
2022-08-03T08:09:59.990Z,5856.00
2022-08-03T08:11:00.014Z,5924.00
2022-08-03T08:11:59.990Z,5944.00
2022-08-03T08:12:59.957Z,6004.00
2022-08-03T08:13:59.948Z,6036.00
2022-08-03T08:14:59.939Z,6124.00
2022-08-03T08:15:59.945Z,6152.00
2022-08-03T08:17:03.303Z,6168.00
2022-08-03T08:17:59.910Z,6240.00
2022-08-03T08:18:59.901Z,6280.00
2022-08-03T08:19:59.892Z,6336.00
2022-08-03T08:20:59.889Z,6424.00
2022-08-03T08:22:01.988Z,6424.00
2022-08-03T08:23:01.131Z,6500.00
2022-08-03T08:23:59.852Z,6540.00
2022-08-03T08:25:01.078Z,6708.00
2022-08-03T08:25:59.847Z,6900.00
2022-08-03T08:26:59.848Z,6824.00
2022-08-03T08:28:30.434Z,8040.00
2022-08-03T08:28:59.836Z,11100.00
2022-08-03T08:30:07.280Z,12256.00
2022-08-03T08:30:59.796Z,10128.00
2022-08-03T08:31:59.786Z,8836.00
2022-08-03T08:32:59.801Z,8112.00
2022-08-03T08:34:04.401Z,7100.00
2022-08-03T08:34:59.792Z,6824.00
2022-08-03T08:35:59.759Z,7012.00
2022-08-03T08:36:59.753Z,7236.00
2022-08-03T08:37:59.738Z,7176.00
2022-08-03T08:38:59.731Z,7096.00
2022-08-03T08:39:59.735Z,6972.00
2022-08-03T08:40:59.750Z,6280.00
2022-08-03T08:41:59.716Z,6952.00
2022-08-03T08:42:59.703Z,7064.00
2022-08-03T08:44:00.214Z,7224.00
2022-08-03T08:44:59.682Z,7308.00
2022-08-03T08:45:59.672Z,7404.00
2022-08-03T08:46:59.694Z,7552.00
2022-08-03T08:48:02.544Z,7644.00
2022-08-03T08:48:59.747Z,7720.00
2022-08-03T08:50:09.670Z,7736.00
2022-08-03T08:50:59.647Z,7772.00
2022-08-03T08:52:01.168Z,7732.00
2022-08-03T08:52:59.727Z,7804.00
2022-08-03T08:53:59.619Z,7796.00
2022-08-03T08:55:00.191Z,7700.00
2022-08-03T08:56:00.769Z,7652.00
2022-08-03T08:56:59.591Z,7728.00
2022-08-03T08:57:59.569Z,7796.00
2022-08-03T08:58:59.589Z,7904.00
2022-08-03T08:59:59.565Z,7980.00
2022-08-03T09:00:59.557Z,8084.00
2022-08-03T09:01:59.540Z,8068.00
2022-08-03T09:04:25.475Z,8120.00
2022-08-03T09:05:54.663Z,8176.00
2022-08-03T09:06:25.462Z,8292.00
2022-08-03T09:07:25.445Z,8296.00
2022-08-03T09:08:25.446Z,8124.00
2022-08-03T09:10:05.917Z,8060.00
2022-08-03T09:10:25.447Z,7960.00
2022-08-03T09:11:54.477Z,7868.00
2022-08-03T09:12:41.941Z,7796.00
2022-08-03T09:13:25.399Z,7680.00
2022-08-03T09:14:36.550Z,7580.00
2022-08-03T09:15:25.402Z,7428.00
2022-08-03T09:16:25.392Z,7192.00
2022-08-03T09:17:25.373Z,7028.00
2022-08-03T09:18:25.359Z,7052.00
2022-08-03T09:19:25.354Z,6908.00
2022-08-03T09:20:25.363Z,6916.00
2022-08-03T09:21:33.537Z,6856.00
2022-08-03T09:22:25.345Z,6792.00
2022-08-03T09:23:51.812Z,6792.00
2022-08-03T09:24:40.582Z,6652.00
2022-08-03T09:25:25.413Z,6572.00
2022-08-03T09:26:25.294Z,6672.00
2022-08-03T09:27:26.172Z,6632.00
2022-08-03T09:29:01.328Z,6588.00
2022-08-03T09:29:25.264Z,6532.00
2022-08-03T09:30:33.742Z,6484.00
2022-08-03T09:31:25.248Z,6428.00
2022-08-03T09:32:25.246Z,6340.00
2022-08-03T09:33:25.229Z,6232.00
2022-08-03T09:34:25.520Z,6124.00
2022-08-03T09:35:51.515Z,5988.00
2022-08-03T09:36:25.222Z,5832.00
2022-08-03T09:38:06.002Z,5704.00
2022-08-03T09:38:25.189Z,5568.00
2022-08-03T09:39:41.191Z,5400.00
2022-08-03T09:40:25.189Z,5240.00
2022-08-03T09:41:25.163Z,5064.00
2022-08-03T09:42:25.174Z,4884.00
2022-08-03T09:43:25.155Z,4736.00
2022-08-03T09:44:26.205Z,4604.00
2022-08-03T09:45:25.138Z,4464.00
2022-08-03T09:46:25.157Z,4356.00
2022-08-03T09:47:28.207Z,4244.00
2022-08-03T09:48:25.117Z,4128.00
2022-08-03T09:49:25.412Z,4040.00
2022-08-03T09:50:25.099Z,3944.00
2022-08-03T09:52:17.950Z,3704.00
2022-08-03T09:52:37.731Z,3700.00
2022-08-03T09:53:25.057Z,3656.00
2022-08-03T09:54:25.048Z,3588.00
2022-08-03T09:56:33.263Z,3532.00
2022-08-03T09:56:35.002Z,3468.00
2022-08-03T09:57:25.031Z,3412.00
2022-08-03T09:58:25.042Z,3352.00
2022-08-03T09:59:25.020Z,3296.00
2022-08-03T10:00:24.998Z,3240.00
2022-08-03T10:01:25.574Z,3188.00
2022-08-03T10:02:24.994Z,3124.00
2022-08-03T10:03:24.985Z,3076.00
2022-08-03T10:04:24.982Z,3024.00
2022-08-03T10:05:25.003Z,2964.00
2022-08-03T10:06:28.819Z,2912.00
2022-08-03T10:07:24.940Z,2868.00
2022-08-03T10:08:24.946Z,2808.00
2022-08-03T10:09:24.918Z,2760.00
2022-08-03T10:10:30.971Z,2720.00
2022-08-03T10:11:24.899Z,2676.00
2022-08-03T10:12:24.886Z,2632.00
2022-08-03T10:13:24.890Z,2588.00
2022-08-03T10:14:24.867Z,2544.00
2022-08-03T10:16:23.399Z,2508.00
2022-08-03T10:16:25.889Z,2464.00
2022-08-03T10:17:24.853Z,2432.00
2022-08-03T10:18:24.830Z,2396.00
2022-08-03T10:19:24.819Z,2356.00
2022-08-03T10:20:24.823Z,2328.00
2022-08-03T10:21:24.810Z,2296.00
2022-08-03T10:22:24.808Z,2264.00
2022-08-03T10:23:24.803Z,2236.00
2022-08-03T10:24:24.785Z,2208.00
2022-08-03T10:25:24.772Z,2184.00
2022-08-03T10:26:24.767Z,2148.00
2022-08-03T10:27:24.768Z,2120.00
2022-08-03T10:28:24.770Z,2096.00
2022-08-03T10:29:24.748Z,2076.00
2022-08-03T10:30:26.214Z,2052.00
2022-08-03T10:31:24.734Z,2032.00
2022-08-03T10:32:24.703Z,2000.00
2022-08-03T10:33:50.158Z,1972.00
2022-08-03T10:34:24.701Z,1948.00
2022-08-03T10:35:24.713Z,1928.00
2022-08-03T10:36:24.678Z,1912.00
2022-08-03T10:37:24.659Z,1896.00
2022-08-03T10:38:24.648Z,1868.00
2022-08-03T10:39:24.660Z,1852.00
2022-08-03T10:40:47.534Z,1832.00
2022-08-03T10:41:24.631Z,1812.00
2022-08-03T10:42:24.625Z,1792.00
2022-08-03T10:43:24.623Z,1772.00
2022-08-03T10:44:24.619Z,1756.00
2022-08-03T10:45:24.593Z,1736.00
2022-08-03T10:46:24.583Z,1716.00
2022-08-03T10:47:24.573Z,1704.00
2022-08-03T10:48:24.568Z,1684.00
2022-08-03T10:49:34.008Z,1664.00
2022-08-03T10:50:24.546Z,1652.00
2022-08-03T10:51:24.557Z,1640.00
2022-08-03T10:52:31.446Z,1628.00
2022-08-03T10:53:24.527Z,1612.00
2022-08-03T10:54:24.508Z,1608.00
2022-08-03T10:55:24.522Z,1592.00
2022-08-03T10:56:41.576Z,1576.00
2022-08-03T10:57:24.634Z,1564.00
2022-08-03T10:58:30.365Z,1552.00
2022-08-03T10:59:27.912Z,1548.00
2022-08-03T11:00:24.543Z,1532.00
2022-08-03T11:01:24.500Z,1520.00
2022-08-03T11:02:24.442Z,1504.00
2022-08-03T11:03:24.433Z,1496.00
2022-08-03T11:04:24.433Z,1484.00
2022-08-03T11:05:24.412Z,1476.00
2022-08-03T11:06:24.407Z,1464.00
2022-08-03T11:07:24.394Z,1456.00
2022-08-03T11:08:24.385Z,1448.00
2022-08-03T11:09:24.374Z,1432.00
2022-08-03T11:10:24.399Z,1420.00
2022-08-03T11:11:24.357Z,1404.00
2022-08-03T11:12:30.017Z,1392.00
2022-08-03T11:13:24.350Z,1388.00
2022-08-03T11:14:24.346Z,1372.00
2022-08-03T11:15:24.340Z,1368.00
2022-08-03T11:16:24.341Z,1352.00
2022-08-03T11:17:24.307Z,1348.00
2022-08-03T11:18:26.886Z,1332.00
2022-08-03T11:19:24.290Z,1316.00
2022-08-03T11:20:24.270Z,1304.00
2022-08-03T11:21:27.685Z,1296.00
2022-08-03T11:22:24.284Z,1288.00
2022-08-03T11:24:04.913Z,1276.00
2022-08-03T11:24:24.246Z,1268.00
2022-08-03T11:25:54.027Z,1260.00
2022-08-03T11:26:24.220Z,1248.00
2022-08-03T11:27:24.214Z,1244.00
2022-08-03T11:28:24.219Z,1236.00
2022-08-03T11:29:24.208Z,1228.00
2022-08-03T11:30:25.896Z,1220.00
2022-08-03T11:31:49.796Z,1208.00
2022-08-03T11:32:24.179Z,1204.00
2022-08-03T11:33:24.157Z,1196.00
2022-08-03T11:34:24.167Z,1188.00
2022-08-03T11:35:24.146Z,1176.00
2022-08-03T11:36:32.507Z,1172.00
2022-08-03T11:37:27.598Z,1168.00
2022-08-03T11:38:24.122Z,1160.00
2022-08-03T11:39:24.121Z,1152.00
2022-08-03T11:40:24.114Z,1144.00
2022-08-03T11:41:24.103Z,1136.00
2022-08-03T11:42:24.091Z,1136.00
2022-08-03T11:43:26.689Z,1124.00
2022-08-03T11:44:24.062Z,1120.00
2022-08-03T11:45:24.067Z,1116.00
2022-08-03T11:46:28.555Z,1104.00
2022-08-03T11:47:24.056Z,1100.00
2022-08-03T11:48:24.042Z,1088.00
2022-08-03T11:49:24.061Z,1080.00
2022-08-03T11:50:24.176Z,1076.00
2022-08-03T11:51:24.007Z,1068.00
2022-08-03T11:52:26.677Z,1064.00
2022-08-03T11:53:23.987Z,1056.00
2022-08-03T11:54:23.992Z,1052.00
2022-08-03T11:55:26.762Z,1048.00
2022-08-03T11:56:23.971Z,1040.00
2022-08-03T11:57:23.958Z,1036.00
2022-08-03T11:59:00.985Z,1028.00
2022-08-03T11:59:23.940Z,1024.00
2022-08-03T12:00:23.920Z,1020.00
2022-08-03T12:01:23.935Z,1012.00
2022-08-03T12:02:23.915Z,1008.00
2022-08-03T12:03:23.987Z,996.00
2022-08-03T12:04:23.902Z,992.00
2022-08-03T12:05:23.897Z,984.00
2022-08-03T12:06:23.871Z,976.00
2022-08-03T12:08:02.532Z,964.00
2022-08-03T12:08:23.867Z,964.00
2022-08-03T12:09:23.849Z,960.00
2022-08-03T12:10:23.849Z,952.00
2022-08-03T12:11:23.828Z,944.00
2022-08-03T12:12:23.818Z,936.00
2022-08-03T12:14:44.982Z,932.00
2022-08-03T12:14:49.019Z,928.00
2022-08-03T12:15:23.798Z,924.00
2022-08-03T12:16:23.816Z,916.00
2022-08-03T12:17:23.792Z,912.00
2022-08-03T12:18:23.759Z,908.00
2022-08-03T12:19:23.760Z,904.00
2022-08-03T12:20:34.450Z,904.00
2022-08-03T12:21:23.740Z,896.00
2022-08-03T12:22:23.746Z,892.00
2022-08-03T12:23:23.722Z,888.00
2022-08-03T12:24:23.714Z,880.00
2022-08-03T12:25:38.454Z,876.00
2022-08-03T12:26:23.707Z,868.00
2022-08-03T12:27:23.705Z,864.00
2022-08-03T12:28:35.950Z,856.00
2022-08-03T12:29:23.687Z,848.00
2022-08-03T12:30:23.669Z,848.00
2022-08-03T12:31:23.656Z,840.00
2022-08-03T12:32:23.650Z,836.00